Terminal Aerodrome Forecast
Issued by NWS

Home | Current Version | Previous Version | Text Only | Print | Product List | Glossary On
Versions: 1 2 3 4 5 6 7 8 9 10 11 12 13
000
FTUS42 TJSJ 052341
TAFIST
TAF
TIST 052341Z 0600/0624 11008KT P6SM FEW020 SCT040
     FM061330 13015KT P6SM SCT025 SCT050
     FM062330 11008KT P6SM SCT020=

USA.gov is the U.S. government's official web portal to all federal, state and local government web resources and services.